sensor_id;sensor_type;location;lat;lon;timestamp;temperature;humidity
18321;DHT22;54904;54.350;18.664;2023-05-19T00:00:08;14.70;78.40
18321;DHT22;54904;54.350;18.664;2023-05-19T00:02:40;14.70;78.30
18321;DHT22;54904;54.350;18.664;2023-05-19T00:05:09;14.70;78.30
18321;DHT22;54904;54.350;18.664;2023-05-19T00:07:38;14.70;78.50
18321;DHT22;54904;54.350;18.664;2023-05-19T00:10:06;14.60;78.40
18321;DHT22;54904;54.350;18.664;2023-05-19T00:12:34;14.60;78.60
18321;DHT22;54904;54.350;18.664;2023-05-19T00:15:03;14.50;79.00
18321;DHT22;54904;54.350;18.664;2023-05-19T00:17:30;14.50;78.70
18321;DHT22;54904;54.350;18.664;2023-05-19T00:20:00;14.50;78.80
18321;DHT22;54904;54.350;18.664;2023-05-19T00:22:32;14.40;79.40
18321;DHT22;54904;54.350;18.664;2023-05-19T00:27:26;14.40;78.40
18321;DHT22;54904;54.350;18.664;2023-05-19T00:29:53;13.90;78.60
18321;DHT22;54904;54.350;18.664;2023-05-19T00:32:20;14.40;79.20
18321;DHT22;54904;54.350;18.664;2023-05-19T00:34:48;14.30;79.30
18321;DHT22;54904;54.350;18.664;2023-05-19T00:37:17;14.30;79.60
18321;DHT22;54904;54.350;18.664;2023-05-19T00:39:45;14.20;79.80
18321;DHT22;54904;54.350;18.664;2023-05-19T00:42:12;14.20;79.50
18321;DHT22;54904;54.350;18.664;2023-05-19T00:44:40;14.30;79.00
18321;DHT22;54904;54.350;18.664;2023-05-19T00:47:07;14.20;79.80
18321;DHT22;54904;54.350;18.664;2023-05-19T00:49:35;14.30;80.20
18321;DHT22;54904;54.350;18.664;2023-05-19T00:52:02;14.20;79.80
18321;DHT22;54904;54.350;18.664;2023-05-19T00:54:33;14.20;79.60
18321;DHT22;54904;54.350;18.664;2023-05-19T00:57:01;14.10;79.70
18321;DHT22;54904;54.350;18.664;2023-05-19T00:59:28;14.10;79.90
18321;DHT22;54904;54.350;18.664;2023-05-19T01:01:56;14.00;79.80
18321;DHT22;54904;54.350;18.664;2023-05-19T01:04:23;14.00;79.90
18321;DHT22;54904;54.350;18.664;2023-05-19T01:06:51;14.00;80.10
18321;DHT22;54904;54.350;18.664;2023-05-19T01:09:20;14.00;80.20
18321;DHT22;54904;54.350;18.664;2023-05-19T01:11:48;15.70;82.20
18321;DHT22;54904;54.350;18.664;2023-05-19T01:14:16;13.90;80.50
18321;DHT22;54904;54.350;18.664;2023-05-19T01:16:49;13.90;80.40
18321;DHT22;54904;54.350;18.664;2023-05-19T01:19:31;13.90;80.40
18321;DHT22;54904;54.350;18.664;2023-05-19T01:22:26;13.90;80.40
18321;DHT22;54904;54.350;18.664;2023-05-19T01:25:36;13.90;80.40
18321;DHT22;54904;54.350;18.664;2023-05-19T01:28:30;14.00;80.60
18321;DHT22;54904;54.350;18.664;2023-05-19T01:31:06;14.00;80.60
18321;DHT22;54904;54.350;18.664;2023-05-19T01:33:39;14.10;80.60
18321;DHT22;54904;54.350;18.664;2023-05-19T01:36:07;14.10;80.60
18321;DHT22;54904;54.350;18.664;2023-05-19T01:38:37;14.00;80.40
18321;DHT22;54904;54.350;18.664;2023-05-19T01:41:05;14.00;80.50
18321;DHT22;54904;54.350;18.664;2023-05-19T01:43:34;14.00;80.70
18321;DHT22;54904;54.350;18.664;2023-05-19T01:46:01;14.00;80.60
18321;DHT22;54904;54.350;18.664;2023-05-19T01:48:30;14.00;80.80
18321;DHT22;54904;54.350;18.664;2023-05-19T01:51:01;14.00;80.90
18321;DHT22;54904;54.350;18.664;2023-05-19T01:53:28;14.00;81.00
18321;DHT22;54904;54.350;18.664;2023-05-19T01:55:56;14.00;81.20
18321;DHT22;54904;54.350;18.664;2023-05-19T01:58:30;14.00;81.80
18321;DHT22;54904;54.350;18.664;2023-05-19T02:01:10;14.00;81.30
18321;DHT22;54904;54.350;18.664;2023-05-19T02:03:52;13.90;81.30
18321;DHT22;54904;54.350;18.664;2023-05-19T02:06:31;13.90;81.40
18321;DHT22;54904;54.350;18.664;2023-05-19T02:09:06;13.90;81.50
18321;DHT22;54904;54.350;18.664;2023-05-19T02:11:36;13.90;81.50
18321;DHT22;54904;54.350;18.664;2023-05-19T02:14:12;13.90;81.60
18321;DHT22;54904;54.350;18.664;2023-05-19T02:16:43;13.90;81.70
18321;DHT22;54904;54.350;18.664;2023-05-19T02:19:21;13.90;81.80
18321;DHT22;54904;54.350;18.664;2023-05-19T02:21:48;13.90;81.90
18321;DHT22;54904;54.350;18.664;2023-05-19T02:24:15;13.90;82.20
18321;DHT22;54904;54.350;18.664;2023-05-19T02:26:42;13.90;82.00
18321;DHT22;54904;54.350;18.664;2023-05-19T02:29:10;13.90;82.10
18321;DHT22;54904;54.350;18.664;2023-05-19T02:31:37;13.90;82.10
18321;DHT22;54904;54.350;18.664;2023-05-19T02:34:04;13.90;82.10
18321;DHT22;54904;54.350;18.664;2023-05-19T02:36:35;13.90;82.20
18321;DHT22;54904;54.350;18.664;2023-05-19T02:39:02;13.90;82.40
18321;DHT22;54904;54.350;18.664;2023-05-19T02:41:30;13.90;82.50
18321;DHT22;54904;54.350;18.664;2023-05-19T02:43:57;13.90;82.70
18321;DHT22;54904;54.350;18.664;2023-05-19T02:46:24;14.80;83.70
18321;DHT22;54904;54.350;18.664;2023-05-19T02:48:52;13.90;82.70
18321;DHT22;54904;54.350;18.664;2023-05-19T02:51:19;13.80;82.80
18321;DHT22;54904;54.350;18.664;2023-05-19T02:53:48;13.90;82.90
18321;DHT22;54904;54.350;18.664;2023-05-19T02:56:16;13.90;82.90
18321;DHT22;54904;54.350;18.664;2023-05-19T02:58:43;13.80;82.90
18321;DHT22;54904;54.350;18.664;2023-05-19T03:01:10;13.80;83.10
18321;DHT22;54904;54.350;18.664;2023-05-19T03:03:37;13.80;83.70
18321;DHT22;54904;54.350;18.664;2023-05-19T03:06:05;13.80;83.40
18321;DHT22;54904;54.350;18.664;2023-05-19T03:08:33;13.80;83.30
18321;DHT22;54904;54.350;18.664;2023-05-19T03:11:02;13.80;83.30
18321;DHT22;54904;54.350;18.664;2023-05-19T03:13:34;13.80;83.40
18321;DHT22;54904;54.350;18.664;2023-05-19T03:16:01;13.80;83.40
18321;DHT22;54904;54.350;18.664;2023-05-19T03:18:28;13.80;83.60
18321;DHT22;54904;54.350;18.664;2023-05-19T03:20:56;13.80;83.70
18321;DHT22;54904;54.350;18.664;2023-05-19T03:23:23;13.80;83.70
18321;DHT22;54904;54.350;18.664;2023-05-19T03:25:51;13.80;83.70
18321;DHT22;54904;54.350;18.664;2023-05-19T03:28:22;13.90;83.80
18321;DHT22;54904;54.350;18.664;2023-05-19T03:30:49;13.90;83.90
18321;DHT22;54904;54.350;18.664;2023-05-19T03:33:18;13.90;83.90
18321;DHT22;54904;54.350;18.664;2023-05-19T03:35:46;13.90;83.90
18321;DHT22;54904;54.350;18.664;2023-05-19T03:38:14;13.90;84.00
18321;DHT22;54904;54.350;18.664;2023-05-19T03:40:48;13.90;84.20
18321;DHT22;54904;54.350;18.664;2023-05-19T03:43:15;13.90;84.30
18321;DHT22;54904;54.350;18.664;2023-05-19T03:45:51;13.90;84.40
18321;DHT22;54904;54.350;18.664;2023-05-19T03:48:42;13.80;84.40
18321;DHT22;54904;54.350;18.664;2023-05-19T03:51:32;13.80;84.60
18321;DHT22;54904;54.350;18.664;2023-05-19T03:54:15;13.90;84.80
18321;DHT22;54904;54.350;18.664;2023-05-19T03:56:42;13.90;84.80
18321;DHT22;54904;54.350;18.664;2023-05-19T03:59:09;13.90;84.80
18321;DHT22;54904;54.350;18.664;2023-05-19T04:01:38;13.90;84.90
18321;DHT22;54904;54.350;18.664;2023-05-19T04:04:06;13.90;84.90
18321;DHT22;54904;54.350;18.664;2023-05-19T04:06:33;13.90;85.00
18321;DHT22;54904;54.350;18.664;2023-05-19T04:09:01;13.90;85.00
18321;DHT22;54904;54.350;18.664;2023-05-19T04:11:29;14.00;85.10
18321;DHT22;54904;54.350;18.664;2023-05-19T04:13:57;14.00;85.00
18321;DHT22;54904;54.350;18.664;2023-05-19T04:16:24;14.00;85.00
18321;DHT22;54904;54.350;18.664;2023-05-19T04:18:52;14.00;85.10
18321;DHT22;54904;54.350;18.664;2023-05-19T04:21:20;14.00;85.20
18321;DHT22;54904;54.350;18.664;2023-05-19T04:23:47;14.00;85.20
18321;DHT22;54904;54.350;18.664;2023-05-19T04:26:14;14.00;85.30
18321;DHT22;54904;54.350;18.664;2023-05-19T04:28:42;13.90;85.30
18321;DHT22;54904;54.350;18.664;2023-05-19T04:31:10;14.10;85.50
18321;DHT22;54904;54.350;18.664;2023-05-19T04:33:39;14.10;85.60
18321;DHT22;54904;54.350;18.664;2023-05-19T04:36:08;14.10;85.70
18321;DHT22;54904;54.350;18.664;2023-05-19T04:38:38;14.10;85.90
18321;DHT22;54904;54.350;18.664;2023-05-19T04:41:08;14.20;86.10
18321;DHT22;54904;54.350;18.664;2023-05-19T04:43:36;14.20;86.30
18321;DHT22;54904;54.350;18.664;2023-05-19T04:46:07;14.20;86.40
18321;DHT22;54904;54.350;18.664;2023-05-19T04:48:37;14.30;86.60
18321;DHT22;54904;54.350;18.664;2023-05-19T04:51:05;14.30;86.70
18321;DHT22;54904;54.350;18.664;2023-05-19T04:53:34;14.30;86.90
18321;DHT22;54904;54.350;18.664;2023-05-19T04:56:02;14.30;87.50
18321;DHT22;54904;54.350;18.664;2023-05-19T04:58:30;14.30;87.30
18321;DHT22;54904;54.350;18.664;2023-05-19T05:00:58;14.30;87.40
18321;DHT22;54904;54.350;18.664;2023-05-19T05:03:26;14.30;87.80
18321;DHT22;54904;54.350;18.664;2023-05-19T05:05:53;14.30;87.80
18321;DHT22;54904;54.350;18.664;2023-05-19T05:08:21;14.40;88.00
18321;DHT22;54904;54.350;18.664;2023-05-19T05:10:51;14.30;88.10
18321;DHT22;54904;54.350;18.664;2023-05-19T05:13:21;14.30;88.20
18321;DHT22;54904;54.350;18.664;2023-05-19T05:15:49;14.40;89.20
18321;DHT22;54904;54.350;18.664;2023-05-19T05:18:18;14.40;88.60
18321;DHT22;54904;54.350;18.664;2023-05-19T05:20:46;14.40;88.80
18321;DHT22;54904;54.350;18.664;2023-05-19T05:23:14;14.40;88.90
18321;DHT22;54904;54.350;18.664;2023-05-19T05:25:46;14.40;89.20
18321;DHT22;54904;54.350;18.664;2023-05-19T05:28:17;14.50;89.20
18321;DHT22;54904;54.350;18.664;2023-05-19T05:30:46;14.50;89.30
18321;DHT22;54904;54.350;18.664;2023-05-19T05:33:14;14.30;89.20
18321;DHT22;54904;54.350;18.664;2023-05-19T05:35:41;14.50;89.40
18321;DHT22;54904;54.350;18.664;2023-05-19T05:38:11;14.60;89.60
18321;DHT22;54904;54.350;18.664;2023-05-19T05:40:39;14.50;89.70
18321;DHT22;54904;54.350;18.664;2023-05-19T05:43:08;14.60;90.00
18321;DHT22;54904;54.350;18.664;2023-05-19T05:45:42;14.60;90.00
18321;DHT22;54904;54.350;18.664;2023-05-19T05:48:10;14.60;90.00
18321;DHT22;54904;54.350;18.664;2023-05-19T05:50:38;14.60;90.10
18321;DHT22;54904;54.350;18.664;2023-05-19T05:53:06;14.70;90.20
18321;DHT22;54904;54.350;18.664;2023-05-19T05:55:39;14.70;90.20
18321;DHT22;54904;54.350;18.664;2023-05-19T05:58:06;14.70;90.20
18321;DHT22;54904;54.350;18.664;2023-05-19T06:00:35;14.80;90.30
18321;DHT22;54904;54.350;18.664;2023-05-19T06:03:04;14.80;90.30
18321;DHT22;54904;54.350;18.664;2023-05-19T06:05:31;14.70;90.30
18321;DHT22;54904;54.350;18.664;2023-05-19T06:07:59;14.80;90.40
18321;DHT22;54904;54.350;18.664;2023-05-19T06:10:27;14.80;90.40
18321;DHT22;54904;54.350;18.664;2023-05-19T06:12:54;14.80;90.50
18321;DHT22;54904;54.350;18.664;2023-05-19T06:15:22;14.90;90.70
18321;DHT22;54904;54.350;18.664;2023-05-19T06:18:11;14.90;90.80
18321;DHT22;54904;54.350;18.664;2023-05-19T06:20:39;15.00;90.90
18321;DHT22;54904;54.350;18.664;2023-05-19T06:23:07;15.00;91.20
18321;DHT22;54904;54.350;18.664;2023-05-19T06:25:35;15.00;91.10
18321;DHT22;54904;54.350;18.664;2023-05-19T06:28:02;15.00;91.10
18321;DHT22;54904;54.350;18.664;2023-05-19T06:30:29;15.10;91.30
18321;DHT22;54904;54.350;18.664;2023-05-19T06:33:16;15.10;91.30
18321;DHT22;54904;54.350;18.664;2023-05-19T06:35:43;15.10;91.20
18321;DHT22;54904;54.350;18.664;2023-05-19T06:38:11;15.10;91.10
18321;DHT22;54904;54.350;18.664;2023-05-19T06:40:39;15.10;91.10
18321;DHT22;54904;54.350;18.664;2023-05-19T06:43:06;15.20;91.20
18321;DHT22;54904;54.350;18.664;2023-05-19T06:45:52;15.20;91.20
18321;DHT22;54904;54.350;18.664;2023-05-19T06:48:22;15.20;91.30
18321;DHT22;54904;54.350;18.664;2023-05-19T06:50:49;15.30;91.30
18321;DHT22;54904;54.350;18.664;2023-05-19T06:53:18;15.30;91.30
18321;DHT22;54904;54.350;18.664;2023-05-19T06:55:46;15.30;91.20
18321;DHT22;54904;54.350;18.664;2023-05-19T06:58:17;15.40;91.20
18321;DHT22;54904;54.350;18.664;2023-05-19T07:00:44;15.40;91.30
18321;DHT22;54904;54.350;18.664;2023-05-19T07:03:14;15.40;91.30
18321;DHT22;54904;54.350;18.664;2023-05-19T07:05:43;15.50;91.40
18321;DHT22;54904;54.350;18.664;2023-05-19T07:08:10;15.50;91.20
18321;DHT22;54904;54.350;18.664;2023-05-19T07:10:38;15.60;91.20
18321;DHT22;54904;54.350;18.664;2023-05-19T07:13:10;15.60;91.20
18321;DHT22;54904;54.350;18.664;2023-05-19T07:15:37;15.70;91.20
18321;DHT22;54904;54.350;18.664;2023-05-19T07:18:04;15.70;91.10
18321;DHT22;54904;54.350;18.664;2023-05-19T07:20:32;15.80;91.10
18321;DHT22;54904;54.350;18.664;2023-05-19T07:23:00;15.80;91.10
18321;DHT22;54904;54.350;18.664;2023-05-19T07:25:28;15.90;91.00
18321;DHT22;54904;54.350;18.664;2023-05-19T07:27:56;15.90;90.90
18321;DHT22;54904;54.350;18.664;2023-05-19T07:30:23;15.90;90.90
18321;DHT22;54904;54.350;18.664;2023-05-19T07:32:50;16.00;90.90
18321;DHT22;54904;54.350;18.664;2023-05-19T07:35:17;16.00;90.80
18321;DHT22;54904;54.350;18.664;2023-05-19T07:37:44;16.10;90.80
18321;DHT22;54904;54.350;18.664;2023-05-19T07:40:13;16.10;90.70
18321;DHT22;54904;54.350;18.664;2023-05-19T07:42:40;16.20;90.70
18321;DHT22;54904;54.350;18.664;2023-05-19T07:45:08;16.10;90.60
18321;DHT22;54904;54.350;18.664;2023-05-19T07:47:35;16.20;90.60
18321;DHT22;54904;54.350;18.664;2023-05-19T07:50:02;16.20;90.60
18321;DHT22;54904;54.350;18.664;2023-05-19T07:52:30;16.20;90.60
18321;DHT22;54904;54.350;18.664;2023-05-19T07:54:58;16.20;90.60
18321;DHT22;54904;54.350;18.664;2023-05-19T07:57:26;16.20;90.50
18321;DHT22;54904;54.350;18.664;2023-05-19T07:59:53;16.20;90.50
18321;DHT22;54904;54.350;18.664;2023-05-19T08:02:21;16.30;90.50
18321;DHT22;54904;54.350;18.664;2023-05-19T08:04:48;16.30;90.50
18321;DHT22;54904;54.350;18.664;2023-05-19T08:07:15;16.30;90.50
18321;DHT22;54904;54.350;18.664;2023-05-19T08:09:42;16.30;90.50
18321;DHT22;54904;54.350;18.664;2023-05-19T08:12:09;16.30;90.50
18321;DHT22;54904;54.350;18.664;2023-05-19T08:14:38;16.30;90.50
18321;DHT22;54904;54.350;18.664;2023-05-19T08:17:05;16.20;90.40
18321;DHT22;54904;54.350;18.664;2023-05-19T08:19:32;16.20;90.50
18321;DHT22;54904;54.350;18.664;2023-05-19T08:21:59;16.30;90.40
18321;DHT22;54904;54.350;18.664;2023-05-19T08:24:26;16.30;90.30
18321;DHT22;54904;54.350;18.664;2023-05-19T08:26:55;16.20;90.30
18321;DHT22;54904;54.350;18.664;2023-05-19T08:29:22;16.20;90.20
18321;DHT22;54904;54.350;18.664;2023-05-19T08:31:50;16.20;90.20
18321;DHT22;54904;54.350;18.664;2023-05-19T08:34:18;16.20;90.10
18321;DHT22;54904;54.350;18.664;2023-05-19T08:36:45;16.20;90.10
18321;DHT22;54904;54.350;18.664;2023-05-19T08:39:12;16.20;90.10
18321;DHT22;54904;54.350;18.664;2023-05-19T08:41:40;16.30;90.40
18321;DHT22;54904;54.350;18.664;2023-05-19T08:44:08;16.20;90.00
18321;DHT22;54904;54.350;18.664;2023-05-19T08:46:35;16.20;90.00
18321;DHT22;54904;54.350;18.664;2023-05-19T08:49:10;16.30;90.10
18321;DHT22;54904;54.350;18.664;2023-05-19T08:51:42;16.30;90.00
18321;DHT22;54904;54.350;18.664;2023-05-19T08:54:14;16.30;90.00
18321;DHT22;54904;54.350;18.664;2023-05-19T08:56:43;16.30;90.00
18321;DHT22;54904;54.350;18.664;2023-05-19T08:59:12;16.30;90.10
18321;DHT22;54904;54.350;18.664;2023-05-19T09:01:41;16.30;90.00
18321;DHT22;54904;54.350;18.664;2023-05-19T09:04:12;16.20;89.80
18321;DHT22;54904;54.350;18.664;2023-05-19T09:06:39;16.30;89.80
18321;DHT22;54904;54.350;18.664;2023-05-19T09:09:07;16.30;89.70
18321;DHT22;54904;54.350;18.664;2023-05-19T09:11:36;16.20;89.50
18321;DHT22;54904;54.350;18.664;2023-05-19T09:14:03;16.30;89.50
18321;DHT22;54904;54.350;18.664;2023-05-19T09:16:30;16.30;89.50
18321;DHT22;54904;54.350;18.664;2023-05-19T09:18:58;16.40;89.60
18321;DHT22;54904;54.350;18.664;2023-05-19T09:21:28;16.40;89.40
18321;DHT22;54904;54.350;18.664;2023-05-19T09:23:57;16.40;89.10
18321;DHT22;54904;54.350;18.664;2023-05-19T09:26:24;16.40;88.70
18321;DHT22;54904;54.350;18.664;2023-05-19T09:29:02;16.40;88.50
18321;DHT22;54904;54.350;18.664;2023-05-19T09:31:36;16.30;88.50
18321;DHT22;54904;54.350;18.664;2023-05-19T09:34:03;16.30;88.40
18321;DHT22;54904;54.350;18.664;2023-05-19T09:36:31;16.30;88.30
18321;DHT22;54904;54.350;18.664;2023-05-19T09:38:59;16.30;88.50
18321;DHT22;54904;54.350;18.664;2023-05-19T09:41:26;16.30;88.50
18321;DHT22;54904;54.350;18.664;2023-05-19T09:43:53;16.30;88.50
18321;DHT22;54904;54.350;18.664;2023-05-19T09:46:24;16.30;88.50
18321;DHT22;54904;54.350;18.664;2023-05-19T09:48:56;16.20;88.30
18321;DHT22;54904;54.350;18.664;2023-05-19T09:51:23;16.30;88.20
18321;DHT22;54904;54.350;18.664;2023-05-19T09:53:52;16.30;88.00
18321;DHT22;54904;54.350;18.664;2023-05-19T09:56:19;16.30;87.80
18321;DHT22;54904;54.350;18.664;2023-05-19T09:58:48;16.30;87.60
18321;DHT22;54904;54.350;18.664;2023-05-19T10:01:16;16.30;87.60
18321;DHT22;54904;54.350;18.664;2023-05-19T10:03:44;16.30;87.50
18321;DHT22;54904;54.350;18.664;2023-05-19T10:06:11;16.30;87.60
18321;DHT22;54904;54.350;18.664;2023-05-19T10:08:40;16.30;87.50
18321;DHT22;54904;54.350;18.664;2023-05-19T10:11:10;16.30;87.50
18321;DHT22;54904;54.350;18.664;2023-05-19T10:13:38;16.30;87.30
18321;DHT22;54904;54.350;18.664;2023-05-19T10:16:06;16.30;87.20
18321;DHT22;54904;54.350;18.664;2023-05-19T10:18:34;16.30;86.80
18321;DHT22;54904;54.350;18.664;2023-05-19T10:21:02;16.20;86.70
18321;DHT22;54904;54.350;18.664;2023-05-19T10:23:29;16.20;86.60
18321;DHT22;54904;54.350;18.664;2023-05-19T10:25:57;16.20;86.70
18321;DHT22;54904;54.350;18.664;2023-05-19T10:28:34;16.10;86.50
18321;DHT22;54904;54.350;18.664;2023-05-19T10:31:06;16.10;86.50
18321;DHT22;54904;54.350;18.664;2023-05-19T10:33:44;16.10;86.30
18321;DHT22;54904;54.350;18.664;2023-05-19T10:36:26;16.10;86.20
18321;DHT22;54904;54.350;18.664;2023-05-19T10:39:03;16.00;86.00
18321;DHT22;54904;54.350;18.664;2023-05-19T10:41:38;16.10;85.80
18321;DHT22;54904;54.350;18.664;2023-05-19T10:44:22;16.00;85.40
18321;DHT22;54904;54.350;18.664;2023-05-19T10:46:53;16.00;85.20
18321;DHT22;54904;54.350;18.664;2023-05-19T10:49:21;15.90;85.10
18321;DHT22;54904;54.350;18.664;2023-05-19T10:51:48;15.90;85.00
18321;DHT22;54904;54.350;18.664;2023-05-19T10:54:15;15.90;84.80
18321;DHT22;54904;54.350;18.664;2023-05-19T10:56:46;15.90;84.60
18321;DHT22;54904;54.350;18.664;2023-05-19T10:59:33;15.80;84.40
18321;DHT22;54904;54.350;18.664;2023-05-19T11:02:03;15.90;84.40
18321;DHT22;54904;54.350;18.664;2023-05-19T11:04:45;15.80;84.20
18321;DHT22;54904;54.350;18.664;2023-05-19T11:07:16;15.90;84.20
18321;DHT22;54904;54.350;18.664;2023-05-19T11:09:48;15.90;84.10
18321;DHT22;54904;54.350;18.664;2023-05-19T11:12:19;15.90;84.00
18321;DHT22;54904;54.350;18.664;2023-05-19T11:14:51;15.90;83.90
18321;DHT22;54904;54.350;18.664;2023-05-19T11:17:18;15.90;83.70
18321;DHT22;54904;54.350;18.664;2023-05-19T11:19:53;15.90;83.70
18321;DHT22;54904;54.350;18.664;2023-05-19T11:22:22;16.00;83.70
18321;DHT22;54904;54.350;18.664;2023-05-19T11:24:50;16.00;83.60
18321;DHT22;54904;54.350;18.664;2023-05-19T11:27:20;16.00;83.40
18321;DHT22;54904;54.350;18.664;2023-05-19T11:29:50;16.00;83.50
18321;DHT22;54904;54.350;18.664;2023-05-19T11:32:19;16.00;83.40
18321;DHT22;54904;54.350;18.664;2023-05-19T11:34:47;16.10;83.50
18321;DHT22;54904;54.350;18.664;2023-05-19T11:37:15;16.10;83.40
18321;DHT22;54904;54.350;18.664;2023-05-19T11:39:42;16.10;83.30
18321;DHT22;54904;54.350;18.664;2023-05-19T11:42:11;16.00;83.30
18321;DHT22;54904;54.350;18.664;2023-05-19T11:44:38;16.00;83.20
18321;DHT22;54904;54.350;18.664;2023-05-19T11:47:07;16.00;83.00
18321;DHT22;54904;54.350;18.664;2023-05-19T11:49:34;16.10;83.10
18321;DHT22;54904;54.350;18.664;2023-05-19T11:52:02;16.10;83.00
18321;DHT22;54904;54.350;18.664;2023-05-19T11:54:31;16.10;83.00
18321;DHT22;54904;54.350;18.664;2023-05-19T11:57:00;16.10;83.10
18321;DHT22;54904;54.350;18.664;2023-05-19T11:59:31;16.20;83.20
18321;DHT22;54904;54.350;18.664;2023-05-19T12:02:02;16.10;83.30
18321;DHT22;54904;54.350;18.664;2023-05-19T12:04:41;16.20;83.40
18321;DHT22;54904;54.350;18.664;2023-05-19T12:07:10;16.20;83.50
18321;DHT22;54904;54.350;18.664;2023-05-19T12:09:38;16.60;84.00
18321;DHT22;54904;54.350;18.664;2023-05-19T12:12:05;16.30;83.80
18321;DHT22;54904;54.350;18.664;2023-05-19T12:14:33;16.30;83.80
18321;DHT22;54904;54.350;18.664;2023-05-19T12:17:09;16.30;83.80
18321;DHT22;54904;54.350;18.664;2023-05-19T12:19:37;16.30;83.60
18321;DHT22;54904;54.350;18.664;2023-05-19T12:22:07;16.30;83.60
18321;DHT22;54904;54.350;18.664;2023-05-19T12:24:35;16.30;83.70
18321;DHT22;54904;54.350;18.664;2023-05-19T12:27:09;16.40;83.80
18321;DHT22;54904;54.350;18.664;2023-05-19T12:29:37;16.40;83.70
18321;DHT22;54904;54.350;18.664;2023-05-19T12:32:06;16.40;83.80
18321;DHT22;54904;54.350;18.664;2023-05-19T12:34:35;16.40;84.60
18321;DHT22;54904;54.350;18.664;2023-05-19T12:37:03;16.40;83.90
18321;DHT22;54904;54.350;18.664;2023-05-19T12:39:32;16.40;84.00
18321;DHT22;54904;54.350;18.664;2023-05-19T12:42:04;16.50;84.20
18321;DHT22;54904;54.350;18.664;2023-05-19T12:44:36;16.50;84.30
18321;DHT22;54904;54.350;18.664;2023-05-19T12:47:04;16.50;84.60
18321;DHT22;54904;54.350;18.664;2023-05-19T12:49:33;16.50;84.90
18321;DHT22;54904;54.350;18.664;2023-05-19T12:52:00;16.50;85.30
18321;DHT22;54904;54.350;18.664;2023-05-19T12:54:33;16.50;85.60
18321;DHT22;54904;54.350;18.664;2023-05-19T12:57:04;16.50;85.90
18321;DHT22;54904;54.350;18.664;2023-05-19T12:59:33;16.50;86.10
18321;DHT22;54904;54.350;18.664;2023-05-19T13:02:00;16.50;86.30
18321;DHT22;54904;54.350;18.664;2023-05-19T13:04:28;16.50;86.60
18321;DHT22;54904;54.350;18.664;2023-05-19T13:06:55;16.50;86.90
18321;DHT22;54904;54.350;18.664;2023-05-19T13:09:22;16.50;87.10
18321;DHT22;54904;54.350;18.664;2023-05-19T13:11:51;16.50;87.30
18321;DHT22;54904;54.350;18.664;2023-05-19T13:14:18;16.40;87.50
18321;DHT22;54904;54.350;18.664;2023-05-19T13:16:46;16.40;87.50
18321;DHT22;54904;54.350;18.664;2023-05-19T13:19:14;16.40;87.70
18321;DHT22;54904;54.350;18.664;2023-05-19T13:21:42;16.40;87.90
18321;DHT22;54904;54.350;18.664;2023-05-19T13:24:11;16.40;88.10
18321;DHT22;54904;54.350;18.664;2023-05-19T13:26:38;16.40;88.50
18321;DHT22;54904;54.350;18.664;2023-05-19T13:29:08;16.40;89.00
18321;DHT22;54904;54.350;18.664;2023-05-19T13:31:36;16.30;89.20
18321;DHT22;54904;54.350;18.664;2023-05-19T13:34:03;16.40;89.60
18321;DHT22;54904;54.350;18.664;2023-05-19T13:36:30;16.30;89.80
18321;DHT22;54904;54.350;18.664;2023-05-19T13:38:59;16.40;90.10
18321;DHT22;54904;54.350;18.664;2023-05-19T13:41:26;16.40;90.20
18321;DHT22;54904;54.350;18.664;2023-05-19T13:43:56;16.30;90.30
18321;DHT22;54904;54.350;18.664;2023-05-19T13:46:25;16.30;90.30
18321;DHT22;54904;54.350;18.664;2023-05-19T13:48:52;16.30;90.50
18321;DHT22;54904;54.350;18.664;2023-05-19T13:51:19;16.30;91.00
18321;DHT22;54904;54.350;18.664;2023-05-19T13:53:46;16.30;90.70
18321;DHT22;54904;54.350;18.664;2023-05-19T13:56:13;16.30;90.80
18321;DHT22;54904;54.350;18.664;2023-05-19T13:58:40;16.30;90.90
18321;DHT22;54904;54.350;18.664;2023-05-19T14:01:07;16.30;91.10
18321;DHT22;54904;54.350;18.664;2023-05-19T14:03:36;16.30;91.20
18321;DHT22;54904;54.350;18.664;2023-05-19T14:06:03;16.30;91.20
18321;DHT22;54904;54.350;18.664;2023-05-19T14:08:30;16.20;91.30
18321;DHT22;54904;54.350;18.664;2023-05-19T14:10:58;16.20;91.30
18321;DHT22;54904;54.350;18.664;2023-05-19T14:13:25;16.20;91.50
18321;DHT22;54904;54.350;18.664;2023-05-19T14:15:52;16.30;91.60
18321;DHT22;54904;54.350;18.664;2023-05-19T14:18:19;16.30;91.70
18321;DHT22;54904;54.350;18.664;2023-05-19T14:20:48;16.30;91.80
18321;DHT22;54904;54.350;18.664;2023-05-19T14:23:15;16.30;91.90
18321;DHT22;54904;54.350;18.664;2023-05-19T14:25:44;16.40;91.90
18321;DHT22;54904;54.350;18.664;2023-05-19T14:28:11;16.30;91.90
18321;DHT22;54904;54.350;18.664;2023-05-19T14:30:38;16.20;92.10
18321;DHT22;54904;54.350;18.664;2023-05-19T14:33:06;16.20;92.10
18321;DHT22;54904;54.350;18.664;2023-05-19T14:35:33;16.20;92.20
18321;DHT22;54904;54.350;18.664;2023-05-19T14:38:02;16.20;92.40
18321;DHT22;54904;54.350;18.664;2023-05-19T14:40:29;16.10;92.50
18321;DHT22;54904;54.350;18.664;2023-05-19T14:42:56;16.00;92.60
18321;DHT22;54904;54.350;18.664;2023-05-19T14:45:23;16.00;92.80
18321;DHT22;54904;54.350;18.664;2023-05-19T14:47:50;15.90;93.00
18321;DHT22;54904;54.350;18.664;2023-05-19T14:50:18;15.90;93.10
18321;DHT22;54904;54.350;18.664;2023-05-19T14:52:45;16.00;93.30
18321;DHT22;54904;54.350;18.664;2023-05-19T14:55:14;16.00;93.40
18321;DHT22;54904;54.350;18.664;2023-05-19T14:57:41;15.90;93.50
18321;DHT22;54904;54.350;18.664;2023-05-19T15:00:08;15.90;93.60
18321;DHT22;54904;54.350;18.664;2023-05-19T15:02:36;15.90;93.70
18321;DHT22;54904;54.350;18.664;2023-05-19T15:05:04;15.80;93.70
18321;DHT22;54904;54.350;18.664;2023-05-19T15:07:31;15.80;93.90
18321;DHT22;54904;54.350;18.664;2023-05-19T15:09:58;15.80;94.00
18321;DHT22;54904;54.350;18.664;2023-05-19T15:12:27;15.80;94.20
18321;DHT22;54904;54.350;18.664;2023-05-19T15:14:54;15.80;94.30
18321;DHT22;54904;54.350;18.664;2023-05-19T15:17:22;15.70;94.30
18321;DHT22;54904;54.350;18.664;2023-05-19T15:19:49;15.70;94.40
18321;DHT22;54904;54.350;18.664;2023-05-19T15:22:16;15.70;94.40
18321;DHT22;54904;54.350;18.664;2023-05-19T15:24:43;15.70;94.50
18321;DHT22;54904;54.350;18.664;2023-05-19T15:27:10;15.60;94.60
18321;DHT22;54904;54.350;18.664;2023-05-19T15:29:39;15.70;94.80